KNBG/NBG METAR and TAF weather

Enter ICAO airport designator
Station Type Date Time Source
KNBG METAR 2022/08/13 11:55 UTC NOAA

KNBG 131155Z AUTO 13006KT 10SM CLR 27/26 A3001 RMK AO2 SLP160 T02670256 10267 20239 53007 $


Station Type Date Time Source
KNBG Decoded METAR 2022/08/13 11:55 UTC NOAA

NEW ORLEANS NAVAL AIR STN, LA, United States (KNBG) 29-50N 90-01W
Aug 13, 2022 - 07:55 AM EDT / 2022.08.13 1155 UTC
Wind: from the SE (130 degrees) at 7 MPH (6 KT):0
Visibility: 10 mile(s):0
Sky conditions: clear
Temperature: 80.1 F (26.7 C)
Dew Point: 78.1 F (25.6 C)
Relative Humidity: 93%
Pressure (altimeter): 30.01 in. Hg (1016 hPa)
Pressure tendency: 0.02 inches (0.7 hPa) higher than three hours ago
ob: KNBG 131155Z AUTO 13006KT 10SM CLR 27/26 A3001 RMK AO2 SLP160 T02670256 10267 20239 53007
cycle: 12

Station Type Date Time Source
KNBG TAF 2022/08/13 07:59 UTC NOAA

TAF KNBG 1307/1407 VRB06KT 9999 SCT030 BKN130 BKN250 QNH2993INS
BECMG 1316/1318 19008KT 9999 VCSH SCT030CB BKN100 BKN250 QNH2996INS
BECMG 1320/1322 VRB06KT 9999 NSW FEW030 SCT130 BKN250 QNH2995INS AUTOMATED SENSOR METWATCH 1307 TIL 1312 T24/1312Z T30/1321Z FN00247

Example: see airport list